Time;durP1;ratioP1;P1;durP2;ratioP2;P2;SDS_P1;SDS_P2;PMS_P1;PMS_P2;Temp;Humidity;BMP_temperature;BMP_pressure;BME280_temperature;BME280_humidity;BME280_pressure;Samples;Min_cycle;Max_cycle;Signal;HPM_P1;HPM_P2
2023/09/11 00:02:02;;;;;;;;;;;;;;;25.50;40.53;100037.19;4274949;33;33886;-73
2023/09/11 00:04:29;;;;;;;;;;;;;;;25.66;40.28;100035.19;4275148;33;33895;-74
2023/09/11 00:06:56;;;;;;;;;;;;;;;25.51;40.55;100036.25;4274133;33;34188;-73
2023/09/11 00:09:24;;;;;;;;;;;;;;;25.37;40.92;100028.47;4276743;33;34488;-76
2023/09/11 00:11:52;;;;;;;;;;;;;;;25.22;41.15;100034.84;4275056;33;33977;-73
2023/09/11 00:14:19;;;;;;;;;;;;;;;24.88;42.03;100035.19;4275174;33;35213;-73
2023/09/11 00:16:47;;;;;;;;;;;;;;;25.14;41.60;100028.72;4275712;33;35011;-75
2023/09/11 00:19:15;;;;;;;;;;;;;;;24.25;43.24;100032.16;4276202;33;35123;-77
2023/09/11 00:21:43;;;;;;;;;;;;;;;24.81;41.94;100022.88;4274585;33;33592;-78
2023/09/11 00:24:10;;;;;;;;;;;;;;;25.35;41.01;100024.09;4274284;33;35108;-75
2023/09/11 00:26:37;;;;;;;;;;;;;;;25.95;39.48;100018.88;4276589;33;34346;-74
2023/09/11 00:29:05;;;;;;;;;;;;;;;24.99;41.84;100020.94;4273834;33;32976;-72
2023/09/11 00:31:33;;;;;;;;;;;;;;;24.62;42.61;100023.94;4273030;33;33604;-78
2023/09/11 00:34:00;;;;;;;;;;;;;;;25.34;41.07;100017.03;4274696;33;34248;-74
2023/09/11 00:36:27;;;;;;;;;;;;;;;24.83;42.29;100026.38;4276458;33;34211;-73
2023/09/11 00:38:54;;;;;;;;;;;;;;;24.42;43.00;100024.97;4276307;33;33629;-76
2023/09/11 00:41:22;;;;;;;;;;;;;;;24.73;42.18;100017.66;4277740;33;33272;-70
2023/09/11 00:43:50;;;;;;;;;;;;;;;25.17;41.15;100020.75;4273189;33;33972;-74
2023/09/11 00:46:17;;;;;;;;;;;;;;;25.34;40.66;100011.72;4274412;33;35091;-73
2023/09/11 00:48:44;;;;;;;;;;;;;;;25.14;41.27;100015.47;4275964;33;33844;-76
2023/09/11 00:51:12;;;;;;;;;;;;;;;24.12;44.06;100016.34;4275747;33;33908;-75
2023/09/11 00:53:39;;;;;;;;;;;;;;;24.49;43.28;100017.84;4278295;33;33770;-76
2023/09/11 00:56:07;;;;;;;;;;;;;;;24.82;41.82;100003.44;4277285;33;34909;-76
2023/09/11 00:58:34;;;;;;;;;;;;;;;25.03;41.45;100017.34;4274717;33;34161;-73
2023/09/11 01:01:02;;;;;;;;;;;;;;;25.28;41.22;100004.72;4259281;33;33932;-73
2023/09/11 01:03:29;;;;;;;;;;;;;;;24.81;42.20;100009.63;4275225;33;34745;-72
2023/09/11 01:05:57;;;;;;;;;;;;;;;23.98;44.37;100012.94;4272848;33;33541;-75
2023/09/11 01:08:24;;;;;;;;;;;;;;;23.52;45.67;100013.16;4261138;33;34089;-76
2023/09/11 01:10:52;;;;;;;;;;;;;;;24.07;44.22;100012.00;4273830;33;33211;-73
2023/09/11 01:13:19;;;;;;;;;;;;;;;23.70;45.18;100018.38;4276886;33;34165;-70
2023/09/11 01:16:09;;;;;;;;;;;;;;;24.77;42.90;100009.69;4274863;33;34004;-73
2023/09/11 01:18:43;;;;;;;;;;;;;;;24.14;44.22;100017.25;4261009;33;35038;-71
2023/09/11 01:21:10;;;;;;;;;;;;;;;25.56;40.97;100005.25;4272858;33;34167;-73
2023/09/11 01:23:44;;;;;;;;;;;;;;;24.67;43.11;100015.06;4260461;33;32222;-74
2023/09/11 01:26:23;;;;;;;;;;;;;;;24.33;43.80;100015.31;4274138;33;34732;-75
2023/09/11 01:29:07;;;;;;;;;;;;;;;23.73;45.23;100013.06;4266242;33;34053;-75
2023/09/11 01:31:36;;;;;;;;;;;;;;;22.72;48.13;100013.37;4281669;33;34103;-73
2023/09/11 01:34:04;;;;;;;;;;;;;;;23.59;45.81;100008.75;4276253;33;34140;-75
2023/09/11 01:36:31;;;;;;;;;;;;;;;24.37;43.97;100005.59;4283283;33;34897;-74
2023/09/11 01:38:58;;;;;;;;;;;;;;;24.58;43.36;100014.28;4271183;33;34171;-74
2023/09/11 01:41:27;;;;;;;;;;;;;;;24.55;43.12;100009.00;4282175;33;34203;-73
2023/09/11 01:43:54;;;;;;;;;;;;;;;25.09;41.59;100001.38;4271227;33;34228;-73
2023/09/11 01:46:22;;;;;;;;;;;;;;;24.87;41.76;100006.91;4270799;33;33971;-77
2023/09/11 01:48:50;;;;;;;;;;;;;;;24.71;42.19;100015.94;4279387;33;33946;-75
2023/09/11 01:51:18;;;;;;;;;;;;;;;24.53;42.61;100012.56;4278435;33;34836;-76
2023/09/11 01:53:46;;;;;;;;;;;;;;;24.58;42.61;100014.28;4272189;33;34180;-73
2023/09/11 01:56:13;;;;;;;;;;;;;;;24.31;43.47;100008.28;4279354;33;33973;-73
2023/09/11 01:58:40;;;;;;;;;;;;;;;24.39;43.35;100011.75;4268362;33;33873;-73
2023/09/11 02:01:08;;;;;;;;;;;;;;;24.58;43.33;100008.97;4279763;33;33482;-74
2023/09/11 02:03:36;;;;;;;;;;;;;;;24.73;42.88;100015.00;4280272;33;36315;-76
2023/09/11 02:06:03;;;;;;;;;;;;;;;24.77;43.31;100013.22;4275230;33;35181;-73
2023/09/11 02:08:30;;;;;;;;;;;;;;;24.53;43.65;100012.56;4277567;33;33729;-71
2023/09/11 02:10:58;;;;;;;;;;;;;;;24.47;44.08;100012.59;4277119;33;32506;-75
2023/09/11 02:13:25;;;;;;;;;;;;;;;23.67;46.04;100013.09;4286521;33;33878;-75
2023/09/11 02:15:52;;;;;;;;;;;;;;;23.34;46.91;100009.72;4278814;33;34038;-73
2023/09/11 02:18:20;;;;;;;;;;;;;;;22.44;49.02;100018.66;4282087;33;34019;-75
2023/09/11 02:20:47;;;;;;;;;;;;;;;23.02;47.46;100014.19;4275427;33;33245;-76
2023/09/11 02:23:15;;;;;;;;;;;;;;;23.15;47.03;100013.31;4275437;33;34005;-77
2023/09/11 02:25:43;;;;;;;;;;;;;;;23.71;45.80;100014.81;4284881;33;34622;-73
2023/09/11 02:28:10;;;;;;;;;;;;;;;22.38;48.98;100013.41;4283864;33;34114;-75
2023/09/11 02:30:37;;;;;;;;;;;;;;;22.56;48.65;100012.50;4279710;33;33578;-75
2023/09/11 02:33:05;;;;;;;;;;;;;;;23.28;46.71;99999.19;4279736;33;35116;-74
2023/09/11 02:35:33;;;;;;;;;;;;;;;23.06;47.32;100008.91;4281439;33;34727;-76
2023/09/11 02:38:00;;;;;;;;;;;;;;;23.60;45.59;100006.06;4287098;33;34181;-75
2023/09/11 02:40:27;;;;;;;;;;;;;;;24.02;44.10;100009.38;4282336;33;34082;-75
2023/09/11 02:42:55;;;;;;;;;;;;;;;24.02;44.45;100009.38;4278660;33;34267;-73
2023/09/11 02:45:22;;;;;;;;;;;;;;;23.26;46.65;99998.31;4282408;33;34931;-76
2023/09/11 02:47:49;;;;;;;;;;;;;;;23.61;45.84;100001.69;4285621;33;34496;-75
2023/09/11 02:50:17;;;;;;;;;;;;;;;23.75;44.72;100000.69;4274654;33;33282;-76
2023/09/11 02:52:44;;;;;;;;;;;;;;;23.95;44.87;100002.38;4278670;33;34059;-76
2023/09/11 02:55:12;;;;;;;;;;;;;;;22.88;47.69;100004.53;4279386;33;33850;-75
2023/09/11 02:57:39;;;;;;;;;;;;;;;23.77;45.28;100007.75;4277414;33;35436;-74
2023/09/11 03:00:08;;;;;;;;;;;;;;;23.61;45.99;100001.69;4274190;33;33231;-74
2023/09/11 03:02:36;;;;;;;;;;;;;;;23.51;46.06;100000.84;4268811;33;34331;-71
2023/09/11 03:05:03;;;;;;;;;;;;;;;23.23;46.63;99998.31;4277411;33;34015;-74
2023/09/11 03:07:31;;;;;;;;;;;;;;;23.61;45.55;100002.56;4286354;33;34110;-73
2023/09/11 03:09:59;;;;;;;;;;;;;;;23.51;45.95;99998.22;4279341;33;33136;-77
2023/09/11 03:12:29;;;;;;;;;;;;;;;22.41;48.94;99994.94;4282632;33;34290;-71
2023/09/11 03:15:03;;;;;;;;;;;;;;;22.64;48.23;99997.56;4281408;33;33281;-75
2023/09/11 03:17:31;;;;;;;;;;;;;;;23.69;45.51;99992.81;4282768;33;34895;-75
2023/09/11 03:20:01;;;;;;;;;;;;;;;23.75;44.86;99994.53;4276502;33;33300;-75
2023/09/11 03:22:29;;;;;;;;;;;;;;;24.02;44.55;99993.50;4277703;33;34902;-75
2023/09/11 03:24:56;;;;;;;;;;;;;;;23.82;44.98;99984.84;4283191;33;34170;-75
2023/09/11 03:27:23;;;;;;;;;;;;;;;23.07;47.36;99997.50;4281512;33;34860;-74
2023/09/11 03:29:51;;;;;;;;;;;;;;;23.23;46.61;99987.72;4281286;33;33360;-74
2023/09/11 03:32:19;;;;;;;;;;;;;;;23.20;46.59;99989.50;4278778;33;34094;-75
2023/09/11 03:34:46;;;;;;;;;;;;;;;22.87;47.83;99994.88;4276439;33;34040;-76
2023/09/11 03:37:14;;;;;;;;;;;;;;;23.50;46.19;99988.50;4286271;33;34707;-74
2023/09/11 03:39:42;;;;;;;;;;;;;;;23.13;47.08;99994.81;4280286;33;33304;-73
2023/09/11 03:42:09;;;;;;;;;;;;;;;22.66;48.71;99993.16;4274075;33;33510;-76
2023/09/11 03:44:36;;;;;;;;;;;;;;;23.45;46.10;99995.56;4286565;33;34812;-74
2023/09/11 03:47:04;;;;;;;;;;;;;;;23.35;46.53;99997.38;4287228;33;34938;-75
2023/09/11 03:49:31;;;;;;;;;;;;;;;22.96;47.21;99986.91;4278004;33;33469;-72
2023/09/11 03:51:58;;;;;;;;;;;;;;;23.23;46.56;99984.22;4285348;33;34912;-71
2023/09/11 03:54:26;;;;;;;;;;;;;;;22.27;49.32;99994.03;4288905;33;34216;-72
2023/09/11 03:56:53;;;;;;;;;;;;;;;22.91;47.64;99999.25;4282309;33;33686;-74
2023/09/11 03:59:21;;;;;;;;;;;;;;;23.20;46.91;99981.56;4281236;33;33185;-72
2023/09/11 04:01:48;;;;;;;;;;;;;;;23.21;46.56;99980.72;4277810;33;34253;-73
2023/09/11 04:04:16;;;;;;;;;;;;;;;23.01;47.09;99994.84;4277649;33;34851;-75
2023/09/11 04:06:45;;;;;;;;;;;;;;;23.56;45.68;99985.81;4277136;33;34642;-74
2023/09/11 04:09:12;;;;;;;;;;;;;;;23.04;47.17;99978.13;4276962;33;33207;-72
2023/09/11 04:11:40;;;;;;;;;;;;;;;22.80;47.75;99979.03;4277965;33;34192;-73
2023/09/11 04:14:07;;;;;;;;;;;;;;;23.02;47.51;99975.44;4277449;33;34057;-75
2023/09/11 04:16:34;;;;;;;;;;;;;;;22.88;47.68;99982.53;4282457;33;34923;-75
2023/09/11 04:19:02;;;;;;;;;;;;;;;22.89;47.70;99977.25;4281107;33;33472;-74
2023/09/11 04:21:32;;;;;;;;;;;;;;;22.40;48.78;99984.38;4277801;33;34930;-75
2023/09/11 04:24:00;;;;;;;;;;;;;;;22.99;47.28;99979.88;4279388;33;34912;-75
2023/09/11 04:26:29;;;;;;;;;;;;;;;22.96;47.22;99976.34;4276450;33;35038;-74
2023/09/11 04:28:57;;;;;;;;;;;;;;;23.03;47.47;99979.88;4282773;33;33038;-71
2023/09/11 04:31:24;;;;;;;;;;;;;;;22.65;48.36;99977.31;4274963;33;33923;-74
2023/09/11 04:33:52;;;;;;;;;;;;;;;23.22;46.66;99969.22;4281066;33;34830;-74
2023/09/11 04:36:19;;;;;;;;;;;;;;;23.10;46.89;99973.72;4282845;33;34569;-74
2023/09/11 04:38:47;;;;;;;;;;;;;;;22.90;47.67;99976.34;4285492;33;33366;-75
2023/09/11 04:41:15;;;;;;;;;;;;;;;23.22;46.83;99970.13;4278107;33;34055;-76
2023/09/11 04:43:43;;;;;;;;;;;;;;;22.97;47.54;99969.31;4271155;33;34550;-75
2023/09/11 04:46:10;;;;;;;;;;;;;;;22.34;49.20;99974.69;4272798;33;34939;-74
2023/09/11 04:48:38;;;;;;;;;;;;;;;22.28;49.31;99964.16;4281204;33;33529;-75
2023/09/11 04:51:07;;;;;;;;;;;;;;;22.74;48.21;99972.00;4287183;33;34147;-75
2023/09/11 04:53:34;;;;;;;;;;;;;;;22.51;48.68;99972.91;4287380;33;33858;-73
2023/09/11 04:56:02;;;;;;;;;;;;;;;22.31;49.25;99972.03;4276773;33;34292;-75
2023/09/11 04:58:30;;;;;;;;;;;;;;;22.91;48.01;99972.84;4273537;33;33233;-74
2023/09/11 05:00:57;;;;;;;;;;;;;;;22.60;48.88;99968.50;4276529;33;35049;-75
2023/09/11 05:03:25;;;;;;;;;;;;;;;23.32;46.92;99966.56;4275313;33;33770;-74
2023/09/11 05:05:52;;;;;;;;;;;;;;;23.20;47.47;99963.97;4274303;33;34994;-72
2023/09/11 05:08:20;;;;;;;;;;;;;;;22.93;47.85;99965.81;4276848;33;34098;-74
2023/09/11 05:10:48;;;;;;;;;;;;;;;22.73;48.68;99962.31;4278832;33;34020;-77
2023/09/11 05:13:15;;;;;;;;;;;;;;;23.10;47.95;99970.16;4271453;33;33614;-73
2023/09/11 05:15:42;;;;;;;;;;;;;;;23.46;46.97;99965.63;4278839;33;34659;-70
2023/09/11 05:18:11;;;;;;;;;;;;;;;22.93;48.18;99973.72;4283681;33;33544;-76
2023/09/11 05:20:38;;;;;;;;;;;;;;;22.97;48.36;99972.81;4286880;33;34714;-71
2023/09/11 05:23:06;;;;;;;;;;;;;;;23.24;47.66;99970.13;4278851;33;34818;-73
2023/09/11 05:25:34;;;;;;;;;;;;;;;23.14;48.02;99962.25;4273261;33;34990;-72
2023/09/11 05:28:07;;;;;;;;;;;;;;;23.12;47.97;99973.69;4277656;33;33201;-76
2023/09/11 05:30:35;;;;;;;;;;;;;;;23.12;48.03;99966.66;4280199;33;34984;-76
2023/09/11 05:33:03;;;;;;;;;;;;;;;23.59;46.78;99969.09;4276747;33;35609;-74
2023/09/11 05:35:31;;;;;;;;;;;;;;;23.51;46.95;99963.84;4277449;33;33885;-76
2023/09/11 05:38:01;;;;;;;;;;;;;;;23.91;45.99;99974.19;4288084;33;33432;-73
2023/09/11 05:40:28;;;;;;;;;;;;;;;23.19;47.73;99967.50;4281559;33;35084;-74
2023/09/11 05:42:56;;;;;;;;;;;;;;;23.33;47.58;99970.06;4281428;33;33889;-75
2023/09/11 05:45:23;;;;;;;;;;;;;;;23.82;46.52;99968.97;4283767;33;34256;-74
2023/09/11 05:47:51;;;;;;;;;;;;;;;24.79;44.36;99961.09;4278904;33;33152;-75
2023/09/11 05:50:18;;;;;;;;;;;;;;;24.79;44.33;99966.38;4281923;33;33948;-73
2023/09/11 05:52:46;;;;;;;;;;;;;;;25.35;42.92;99965.78;4281903;33;34560;-72
2023/09/11 05:55:13;;;;;;;;;;;;;;;24.80;44.46;99968.16;4279152;33;33880;-78
2023/09/11 05:57:40;;;;;;;;;;;;;;;25.83;42.12;99965.97;4283728;33;33564;-74
2023/09/11 06:00:12;;;;;;;11.82;4.78;;;;;;;26.61;40.83;99974.47;4277530;33;33810;-74
2023/09/11 06:02:40;;;;;;;9.98;4.87;;;;;;;26.31;41.50;99967.88;4282371;33;33894;-76
2023/09/11 06:05:08;;;;;;;8.98;4.90;;;;;;;26.38;41.43;99967.75;4286455;33;33716;-72
2023/09/11 06:07:36;;;;;;;11.43;4.35;;;;;;;26.21;41.90;99965.41;4276148;33;33437;-75
2023/09/11 06:10:04;;;;;;;8.38;5.35;;;;;;;26.51;41.38;99963.09;4277968;33;33830;-72
2023/09/11 06:12:31;;;;;;;9.02;4.90;;;;;;;25.92;42.63;99959.66;4275830;33;34694;-76
2023/09/11 06:14:59;;;;;;;7.32;4.30;;;;;;;25.65;43.31;99960.03;4263268;33;33650;-74
2023/09/11 06:17:27;;;;;;;8.57;5.17;;;;;;;25.58;43.50;99958.38;4272028;33;33368;-74
2023/09/11 06:20:13;;;;;;;13.20;6.03;;;;;;;25.20;44.54;99961.50;4275650;33;33207;-71
2023/09/11 06:22:43;;;;;;;14.57;4.68;;;;;;;24.87;45.31;99959.22;4279402;33;34806;-74
2023/09/11 06:25:11;;;;;;;8.73;4.50;;;;;;;25.69;43.41;99958.19;4277274;33;34481;-73
2023/09/11 06:27:38;;;;;;;;;;;;;;;25.77;43.24;99955.44;4277603;33;32872;-74
2023/09/11 06:30:06;;;;;;;;;;;;;;;26.16;42.48;99961.94;4274626;33;34981;-74
2023/09/11 06:32:34;;;;;;;;;;;;;;;26.44;41.74;99956.13;4274571;33;34350;-78
2023/09/11 06:35:04;;;;;;;;;;;;;;;26.40;41.67;99965.06;4283833;33;34252;-74
2023/09/11 06:37:32;;;;;;;;;;;;;;;26.54;41.39;99962.16;4275399;33;32418;-77
2023/09/11 06:39:59;;;;;;;;;;;;;;;26.64;41.28;99963.81;4279596;33;34105;-75
2023/09/11 06:42:26;;;;;;;12.85;5.30;;;;;;;26.72;41.42;99967.19;4286667;33;34302;-76
2023/09/11 06:44:54;;;;;;;7.25;4.47;;;;;;;26.70;41.61;99970.78;4276648;33;33847;-74
2023/09/11 06:47:22;;;;;;;;;;;;;;;26.96;41.27;99976.44;4286630;33;34154;-75
2023/09/11 06:49:49;;;;;;;;;;;;;;;27.38;40.68;99973.00;4285579;33;34438;-73
2023/09/11 06:52:18;;;;;;;;;;;;;;;27.54;40.41;99974.38;4274989;33;33579;-74
2023/09/11 06:54:45;;;;;;;;;;;;;;;27.91;39.58;99973.59;4278513;33;34307;-73
2023/09/11 06:57:13;;;;;;;9.95;4.80;;;;;;;27.88;39.81;99981.66;4275018;33;33404;-76
2023/09/11 06:59:41;;;;;;;7.65;4.28;;;;;;;27.69;40.03;99981.16;4262966;33;34624;-76
2023/09/11 07:02:09;;;;;;;7.10;4.32;;;;;;;27.62;40.18;99988.41;4279916;33;34030;-75
2023/09/11 07:04:36;;;;;;;8.10;5.07;;;;;;;27.94;39.47;99978.84;4278950;33;33795;-75
2023/09/11 07:07:04;;;;;;;7.37;4.50;;;;;;;28.40;38.38;99979.50;4279145;33;33917;-75
2023/09/11 07:09:31;;;;;;;8.80;4.72;;;;;;;28.20;38.87;99979.97;4279999;33;34428;-73
2023/09/11 07:11:59;;;;;;;7.32;4.18;;;;;;;28.14;39.02;99974.81;4281325;33;34662;-77
2023/09/11 07:14:27;;;;;;;9.52;5.10;;;;;;;28.28;38.97;99993.09;4278814;33;34382;-79
2023/09/11 07:16:55;;;;;;;10.55;4.50;;;;;;;28.32;39.25;99982.34;4282049;33;34121;-75
2023/09/11 07:19:22;;;;;;;12.73;4.45;;;;;;;28.66;38.77;99978.81;4273945;33;33834;-78
2023/09/11 07:21:50;;;;;;;8.00;4.45;;;;;;;28.47;39.30;99988.19;4270847;33;33643;-73
2023/09/11 07:24:18;;;;;;;10.07;4.97;;;;;;;28.63;39.29;99985.13;4273798;33;34050;-74
2023/09/11 07:26:46;;;;;;;8.57;4.72;;;;;;;28.99;38.72;99986.81;4281956;33;33976;-74
2023/09/11 07:29:14;;;;;;;8.73;4.37;;;;;;;28.93;39.11;99987.00;4275439;33;33965;-77
2023/09/11 07:31:42;;;;;;;9.02;4.68;;;;;;;28.96;39.16;99987.78;4263127;33;32258;-75
2023/09/11 07:34:12;;;;;;;8.82;4.93;;;;;;;29.70;37.88;99995.47;4262405;33;33210;-78
2023/09/11 07:36:40;;;;;;;10.55;5.07;;;;;;;29.78;38.02;99993.44;4275284;33;33256;-75
2023/09/11 07:39:08;;;;;;;12.00;5.12;;;;;;;30.49;36.84;99988.50;4277502;33;33661;-74
2023/09/11 07:41:36;;;;;;;8.07;4.35;;;;;;;30.24;37.27;99989.28;4270157;33;33098;-73
2023/09/11 07:44:04;;;;;;;11.23;4.65;;;;;;;30.16;37.68;99989.53;4274308;33;33903;-75
2023/09/11 07:46:31;;;;;;;9.20;4.70;;;;;;;30.24;37.90;99989.28;4265010;33;34393;-74
2023/09/11 07:48:59;;;;;;;13.88;4.65;;;;;;;30.12;38.11;99987.91;4267318;33;33581;-73
2023/09/11 07:51:27;;;;;;;9.20;4.50;;;;;;;30.64;37.18;99989.78;4275072;33;34556;-75
2023/09/11 07:53:56;;;;;;;7.07;4.28;;;;;;;30.66;37.37;99988.78;4275861;33;34005;-74
2023/09/11 07:56:23;;;;;;;9.73;4.30;;;;;;;30.85;37.01;99982.75;4279834;33;34518;-74
2023/09/11 07:58:51;;;;;;;6.80;4.07;;;;;;;31.65;35.52;99979.84;4278264;33;33698;-74
2023/09/11 08:01:18;;;;;;;8.30;4.45;;;;;;;31.74;35.65;99983.03;4278726;33;33618;-74
2023/09/11 08:03:47;;;;;;;11.90;4.70;;;;;;;31.85;35.07;99987.97;4287230;33;34025;-74
2023/09/11 08:06:15;;;;;;;10.63;4.70;;;;;;;32.03;34.27;99986.37;4281399;33;34183;-74
2023/09/11 08:08:43;;;;;;;10.52;4.95;;;;;;;32.67;33.25;99980.09;4276201;33;33821;-74
2023/09/11 08:11:20;;;;;;;10.48;4.65;;;;;;;33.06;32.38;99973.91;4273790;33;34198;-74
2023/09/11 08:13:50;;;;;;;10.68;4.68;;;;;;;33.26;31.93;99969.44;4270336;33;33701;-74
2023/09/11 08:16:17;;;;;;;10.38;4.78;;;;;;;33.45;31.47;99977.53;4274639;33;33602;-75
2023/09/11 08:18:45;;;;;;;8.73;4.72;;;;;;;33.44;31.71;99973.09;4278241;33;33786;-73
2023/09/11 08:21:13;;;;;;;11.93;5.18;;;;;;;33.80;31.31;99970.47;4274403;33;33481;-73
2023/09/11 08:23:41;;;;;;;7.53;4.70;;;;;;;34.05;30.90;99972.81;4273216;33;34189;-74
2023/09/11 08:26:10;;;;;;;9.23;4.47;;;;;;;34.31;30.19;99967.09;4274425;33;33867;-74
2023/09/11 08:28:37;;;;;;;8.68;4.15;;;;;;;34.47;29.93;99976.16;4276507;33;33989;-74
2023/09/11 08:31:06;;;;;;;9.77;4.40;;;;;;;34.73;29.60;99968.56;4276044;33;33911;-74
2023/09/11 08:33:33;;;;;;;8.15;4.12;;;;;;;34.70;29.59;99961.53;4277738;33;33601;-74
2023/09/11 08:36:21;;;;;;;10.27;4.72;;;;;;;34.90;29.23;99960.47;4271311;33;33413;-74
2023/09/11 08:38:48;;;;;;;7.65;4.30;;;;;;;35.75;27.64;99961.22;4271522;33;33968;-73
2023/09/11 08:41:17;;;;;;;12.30;4.35;;;;;;;36.04;27.88;99954.16;4272304;33;33717;-74
2023/09/11 08:43:45;;;;;;;;;;;;;;;36.17;27.44;99957.88;4266693;33;33599;-74
2023/09/11 08:46:17;;;;;;;10.40;4.43;;;;;;;36.51;26.54;99953.19;4282791;33;33635;-73
2023/09/11 08:48:49;;;;;;;9.68;4.55;;;;;;;36.57;26.46;99955.50;4281250;33;33884;-73
2023/09/11 08:51:40;;;;;;;7.87;4.10;;;;;;;37.17;25.35;99948.28;4281305;33;33791;-73
2023/09/11 08:54:09;;;;;;;8.18;3.72;;;;;;;37.37;24.87;99944.28;4274900;33;33665;-74
2023/09/11 08:56:40;;;;;;;11.63;4.07;;;;;;;37.32;25.16;99941.91;4270596;33;33138;-74
2023/09/11 08:59:11;;;;;;;6.87;3.75;;;;;;;37.56;25.25;99944.81;4276309;33;32985;-74
2023/09/11 09:01:40;;;;;;;9.38;4.30;;;;;;;37.72;24.75;99941.13;4264365;33;34647;-73
2023/09/11 09:04:08;;;;;;;9.88;4.05;;;;;;;37.51;24.88;99940.69;4267564;33;32291;-73
2023/09/11 09:06:36;;;;;;;8.63;3.75;;;;;;;37.73;24.48;99942.88;4280933;33;34265;-74
2023/09/11 09:09:04;;;;;;;8.18;3.85;;;;;;;38.09;23.99;99941.41;4280708;33;33816;-74
2023/09/11 09:11:31;;;;;;;9.88;4.20;;;;;;;38.49;23.48;99934.13;4277781;33;34787;-74
2023/09/11 09:13:59;;;;;;;8.82;4.18;;;;;;;38.40;23.93;99934.75;4283500;33;33709;-74
2023/09/11 09:16:27;;;;;;;6.15;3.67;;;;;;;38.11;23.15;99937.66;4282008;33;33468;-73
2023/09/11 09:18:56;;;;;;;5.97;3.53;;;;;;;38.65;22.68;99933.09;4278806;33;34617;-72
2023/09/11 09:21:25;;;;;;;7.90;3.55;;;;;;;38.84;23.01;99933.50;4275238;33;33713;-73
2023/09/11 09:23:53;;;;;;;;;;;;;;;38.83;23.24;99931.78;4274146;33;34008;-74
2023/09/11 09:26:21;;;;;;;;;;;;;;;39.56;22.10;99930.16;4272210;33;34300;-74
2023/09/11 09:28:51;;;;;;;;;;;;;;;39.76;21.46;99935.97;4272575;33;33075;-74
2023/09/11 09:31:23;;;;;;;;;;;;;;;39.88;20.79;99935.94;4277136;33;33302;-74
2023/09/11 09:33:51;;;;;;;;;;;;;;;39.96;20.97;99929.91;4266103;33;34721;-73
2023/09/11 09:36:19;;;;;;;;;;;;;;;40.40;20.38;99924.81;4281983;33;33125;-74
2023/09/11 09:38:46;;;;;;;;;;;;;;;40.02;20.12;99924.03;4251340;33;34261;-73
2023/09/11 09:41:15;;;;;;;;;;;;;;;40.48;20.13;99922.34;4271562;33;34530;-73
2023/09/11 09:43:50;;;;;;;;;;;;;;;40.52;19.71;99925.69;4270485;33;34613;-74
2023/09/11 09:46:18;;;;;;;;;;;;;;;40.80;19.93;99927.09;4286891;33;33197;-74
2023/09/11 09:48:46;;;;;;;;;;;;;;;40.42;20.38;99912.84;4276009;33;34750;-74
2023/09/11 09:51:13;;;;;;;;;;;;;;;40.91;19.72;99918.97;4276840;33;35144;-74
2023/09/11 09:53:42;;;;;;;;;;;;;;;41.41;18.71;99916.72;4262033;33;34123;-72
2023/09/11 09:56:11;;;;;;;;;;;;;;;40.91;19.20;99904.53;4275627;33;34079;-75
2023/09/11 09:58:39;;;;;;;;;;;;;;;41.08;19.37;99904.00;4273329;33;34370;-73
2023/09/11 10:01:08;;;;;;;;;;;;;;;41.28;19.21;99906.97;4275544;33;34683;-74
2023/09/11 10:03:43;;;;;;;;;;;;;;;41.40;18.36;99901.41;4272254;33;34346;-75
2023/09/11 10:06:22;;;;;;;;;;;;;;;41.80;18.51;99900.84;4275473;33;34201;-75
2023/09/11 10:09:09;;;;;;;;;;;;;;;41.47;18.11;99899.03;4274655;33;33581;-75
2023/09/11 10:11:38;;;;;;;;;;;;;;;41.63;18.50;99894.09;4272171;33;32733;-75
2023/09/11 10:14:07;;;;;;;;;;;;;;;41.43;18.59;99886.69;4267102;33;33579;-75
2023/09/11 10:16:34;;;;;;;;;;;;;;;41.70;18.25;99882.69;4287086;33;34309;-74
2023/09/11 10:19:02;;;;;;;;;;;;;;;41.46;18.47;99883.72;4287049;33;34708;-74
2023/09/11 10:21:29;;;;;;;;;;;;;;;41.27;18.83;99873.50;4267825;33;33644;-74
2023/09/11 10:23:57;;;;;;;;;;;;;;;41.25;18.64;99868.19;4276258;33;34336;-74
2023/09/11 10:26:47;;;;;;;;;;;;;;;41.54;18.35;99872.22;4278791;33;33800;-74
2023/09/11 10:29:20;;;;;;;;;;;;;;;41.60;17.52;99864.37;4279518;33;34089;-74
2023/09/11 10:32:08;;;;;;;;;;;;;;;41.24;17.82;99860.16;4271514;33;33956;-74
2023/09/11 10:34:36;;;;;;;;;;;;;;;41.57;18.33;99855.63;4274299;33;34054;-74
2023/09/11 10:37:03;;;;;;;;;;;;;;;41.71;18.68;99855.38;4269988;33;33679;-74
2023/09/11 10:39:30;;;;;;;;;;;;;;;42.02;17.94;99845.44;4279620;33;34966;-74
2023/09/11 10:41:58;;;;;;;;;;;;;;;42.28;18.13;99850.50;4273016;33;33410;-74
2023/09/11 10:44:25;;;;;;;;;;;;;;;42.13;17.87;99851.81;4286115;33;34536;-74
2023/09/11 10:46:53;;;;;;;;;;;;;;;41.98;18.08;99852.12;4278783;33;34625;-74
2023/09/11 10:49:22;;;;;;;;;;;;;;;41.94;18.30;99847.06;4279278;33;33915;-75
2023/09/11 10:51:50;;;;;;;;;;;;;;;41.58;18.31;99841.03;4284855;33;34186;-74
2023/09/11 10:54:21;;;;;;;;;;;;;;;42.56;17.55;99837.22;4277738;33;34103;-74
2023/09/11 10:56:50;;;;;;;;;;;;;;;42.07;17.98;99841.47;4275325;33;33071;-74
2023/09/11 10:59:17;;;;;;;;;;;;;;;41.74;18.01;99840.63;4276859;33;34302;-74
2023/09/11 11:01:46;;;;;;;;;;;;;;;41.87;18.06;99841.31;4276367;33;34923;-74
2023/09/11 11:04:14;;;;;;;;;;;;;;;42.14;18.13;99832.66;4275931;33;34556;-74
2023/09/11 11:06:42;;;;;;;;;;;;;;;41.44;17.78;99836.78;4283097;33;33359;-74
2023/09/11 11:09:22;;;;;;;;;;;;;;;41.32;18.47;99838.66;4288628;33;34302;-74
2023/09/11 11:12:04;;;;;;;;;;;;;;;41.73;18.48;99828.03;4272756;33;34084;-74
2023/09/11 11:14:33;;;;;;;;;;;;;;;41.80;18.17;99835.53;4287004;33;33693;-74
2023/09/11 11:17:03;;;;;;;;;;;;;;;41.46;18.23;99827.50;4277758;33;34136;-74
2023/09/11 11:19:31;;;;;;;;;;;;;;;41.58;18.16;99830.16;4284766;33;34283;-74
2023/09/11 11:21:59;;;;;;;;;;;;;;;41.69;17.75;99826.56;4279135;33;34034;-74
2023/09/11 11:24:30;;;;;;;;;;;;;;;41.83;17.81;99834.41;4288907;33;34624;-74
2023/09/11 11:26:57;;;;;;;;;;;;;;;42.02;17.24;99828.25;4274530;33;33151;-74
2023/09/11 11:29:26;;;;;;;;;;;;;;;41.68;17.01;99825.69;4276679;33;33835;-74
2023/09/11 11:31:54;;;;;;;;;;;;;;;41.65;17.26;99826.84;4274284;33;34289;-74
2023/09/11 11:34:27;;;;;;;;;;;;;;;41.85;17.60;99832.41;4259495;33;34791;-74
2023/09/11 11:36:57;;;;;;;;;;;;;;;41.84;17.57;99817.06;4273317;33;33810;-74
2023/09/11 11:39:26;;;;;;;;;;;;;;;42.08;16.99;99818.72;4266114;33;34087;-74
2023/09/11 11:41:53;;;;;;;;;;;;;;;42.01;16.50;99815.63;4264697;33;33422;-74
2023/09/11 11:44:22;;;;;;;;;;;;;;;41.92;16.95;99809.13;4259321;33;34136;-74
2023/09/11 11:46:51;;;;;;;;;;;;;;;41.99;17.11;99804.88;4278220;33;33464;-74
2023/09/11 11:49:19;;;;;;;;;;;;;;;42.04;16.78;99802.66;4270713;33;33488;-74
2023/09/11 11:51:47;;;;;;;;;;;;;;;41.85;17.16;99797.06;4271470;33;34290;-75
2023/09/11 11:54:24;;;;;;;;;;;;;;;41.54;17.21;99796.06;4275467;33;35083;-74
2023/09/11 11:56:58;;;;;;;;;;;;;;;41.07;17.94;99796.34;4281538;33;33443;-74
2023/09/11 11:59:52;;;;;;;;;;;;;;;40.87;18.30;99793.38;4283424;33;34246;-74
2023/09/11 12:02:22;;;;;;;;;;;;;;;41.41;17.19;99790.81;4275292;33;33729;-74
2023/09/11 12:04:53;;;;;;;;;;;;;;;41.69;17.39;99783.94;4284029;33;35079;-74
2023/09/11 12:07:22;;;;;;;;;;;;;;;41.29;17.80;99780.97;4278533;33;33414;-74
2023/09/11 12:09:50;;;;;;;;;;;;;;;41.22;17.83;99773.34;4272214;33;33612;-74
2023/09/11 12:12:17;;;;;;;;;;;;;;;41.44;17.98;99771.53;4285119;33;34030;-75
2023/09/11 12:14:45;;;;;;;;;;;;;;;41.40;18.11;99770.06;4282122;33;35027;-75
2023/09/11 12:17:12;;;;;;;;;;;;;;;41.31;18.09;99768.97;4267091;33;33328;-75
2023/09/11 12:19:40;;;;;;;;;;;;;;;41.75;16.89;99766.22;4267043;33;34721;-74
2023/09/11 12:22:08;;;;;;;;;;;;;;;41.96;16.41;99772.50;4279311;33;33993;-74
2023/09/11 12:24:36;;;;;;;;;;;;;;;42.09;15.94;99768.72;4281730;33;34910;-75
2023/09/11 12:27:04;;;;;;;;;;;;;;;41.57;16.90;99763.16;4277096;33;33387;-73
2023/09/11 12:29:32;;;;;;;;;;;;;;;41.61;16.21;99757.37;4263935;33;34731;-74
2023/09/11 12:32:00;;;;;;;;;;;;;;;41.26;17.16;99760.34;4262596;33;35143;-74
2023/09/11 12:34:41;;;;;;;;;;;;;;;41.74;16.80;99753.59;4282089;33;35005;-74